Time;durP1;ratioP1;P1;durP2;ratioP2;P2;SDS_P1;SDS_P2;PMS_P1;PMS_P2;Temp;Humidity;BMP_temperature;BMP_pressure;BME280_temperature;BME280_humidity;BME280_pressure;Samples;Min_cycle;Max_cycle;Signal;HPM_P1;HPM_P2
2021/12/26 00:02:12;;;;;;;29.15;17.58;;;282.10;2278.40;;;;;;5092665;28;20020;-80
2021/12/26 00:04:38;;;;;;;;;;;282.10;2278.40;;;;;;5093497;28;20028;-75
2021/12/26 00:07:04;;;;;;;29.42;14.02;;;282.10;2278.40;;;;;;5092837;28;20359;-79
2021/12/26 00:09:30;;;;;;;28.15;15.43;;;282.00;2278.40;;;;;;5092841;28;20036;-75
2021/12/26 00:11:58;;;;;;;22.48;14.25;;;281.90;2278.40;;;;;;5092415;28;20024;-80
2021/12/26 00:14:24;;;;;;;21.15;12.35;;;282.00;2278.40;;;;;;5092671;28;20024;-75
2021/12/26 00:16:50;;;;;;;23.30;12.68;;;282.00;2278.40;;;;;;5092808;28;20115;-75
2021/12/26 00:19:15;;;;;;;;;;;281.90;2278.40;;;;;;5093141;28;20028;-80
2021/12/26 00:21:41;;;;;;;20.05;12.27;;;281.80;2278.40;;;;;;5092907;28;19908;-76
2021/12/26 00:24:07;;;;;;;21.02;12.05;;;281.80;2278.40;;;;;;5092634;28;20120;-80
2021/12/26 00:26:32;;;;;;;;;;;256.90;1920.00;;;;;;5071039;28;20377;-75
2021/12/26 00:29:00;;;;;;;22.85;13.00;;;256.90;2252.80;;;;;;5072373;28;19920;-74
2021/12/26 00:31:26;;;;;;;22.73;12.23;;;256.90;2252.80;;;;;;5072288;28;20052;-75
2021/12/26 00:33:52;;;;;;;26.30;13.93;;;256.80;2252.80;;;;;;5072216;28;20024;-81
2021/12/26 00:36:18;;;;;;;26.08;15.32;;;256.90;2252.80;;;;;;5072479;28;20028;-74
2021/12/26 00:38:44;;;;;;;31.77;16.52;;;256.90;2252.80;;;;;;5072429;28;20031;-80
2021/12/26 00:41:10;;;;;;;33.70;17.08;;;256.70;2252.80;;;;;;5072192;28;20095;-74
2021/12/26 00:43:36;;;;;;;;;;;256.60;2252.80;;;;;;5072829;28;20028;-76
2021/12/26 00:46:02;;;;;;;32.38;19.13;;;256.60;2252.80;;;;;;5071862;28;20377;-79
2021/12/26 00:48:27;;;;;;;35.80;20.33;;;256.50;2252.80;;;;;;5072103;28;20548;-74
2021/12/26 00:50:54;;;;;;;40.70;24.10;;;256.60;2252.80;;;;;;5071992;28;20099;-75
2021/12/26 00:53:19;;;;;;;40.70;25.35;;;256.50;2252.80;;;;;;5072141;28;20383;-76
2021/12/26 00:55:45;;;;;;;42.40;24.27;;;256.50;2252.80;;;;;;5053888;28;20029;-73
2021/12/26 00:58:11;;;;;;;;;;;256.40;2252.80;;;;;;5056609;28;20532;-74
2021/12/26 01:00:42;;;;;;;37.88;22.10;;;256.30;2252.80;;;;;;5055939;28;20047;-75
2021/12/26 01:03:10;;;;;;;37.80;20.73;;;256.40;2252.80;;;;;;5056430;28;20032;-77
2021/12/26 01:05:38;;;;;;;36.05;20.38;;;256.40;2252.80;;;;;;5055104;28;20472;-80
2021/12/26 01:08:04;;;;;;;32.17;18.92;;;256.50;2252.80;;;;;;5055966;28;20033;-80
2021/12/26 01:10:39;;;;;;;27.23;17.75;;;256.40;2252.80;;;;;;5056011;28;20111;-77
2021/12/26 01:13:40;;;;;;;29.15;16.38;;;256.40;2252.80;;;;;;5055924;28;20020;-80
2021/12/26 01:16:03;;;;;;;26.90;16.83;;;256.30;2252.80;;;;;;5052424;28;20393;-75
2021/12/26 01:18:33;;;;;;;30.65;17.30;;;256.30;2252.80;;;;;;5054090;28;20384;-76
2021/12/26 01:21:16;;;;;;;25.60;15.18;;;256.30;2252.80;;;;;;5063585;28;20025;-75
2021/12/26 01:23:44;;;;;;;25.52;15.40;;;256.40;2252.80;;;;;;5064243;28;20021;-81
2021/12/26 01:26:10;;;;;;;29.48;14.85;;;256.30;2252.80;;;;;;5065703;28;20055;-80
2021/12/26 01:28:36;;;;;;;25.92;15.25;;;256.30;2252.80;;;;;;5084649;28;20060;-74
2021/12/26 01:31:02;;;;;;;29.08;15.35;;;256.30;2252.80;;;;;;5085862;28;20510;-75
2021/12/26 01:33:28;;;;;;;24.55;14.85;;;256.40;2252.80;;;;;;5084169;28;20285;-74
2021/12/26 01:35:57;;;;;;;30.33;16.63;;;256.40;2252.80;;;;;;5085424;28;20040;-78
2021/12/26 01:38:23;;;;;;;35.00;17.25;;;256.40;2252.80;;;;;;5086475;28;20078;-80
2021/12/26 01:40:57;;;;;;;30.10;17.55;;;256.40;2252.80;;;;;;5087007;28;20467;-77
2021/12/26 01:43:30;;;;;;;29.35;17.95;;;256.40;2252.80;;;;;;5084044;28;20031;-79
2021/12/26 01:45:56;;;;;;;35.22;17.00;;;256.50;2252.80;;;;;;5086574;28;20043;-79
2021/12/26 01:48:23;;;;;;;27.52;15.27;;;256.50;2252.80;;;;;;5078269;28;20033;-76
2021/12/26 01:50:51;;;;;;;25.55;14.63;;;256.50;2252.80;;;;;;5075172;28;20488;-76
2021/12/26 01:53:19;;;;;;;30.70;16.60;;;256.50;2252.80;;;;;;5075603;28;20021;-75
2021/12/26 01:55:46;;;;;;;30.13;15.35;;;256.60;2252.80;;;;;;5078340;28;20384;-75
2021/12/26 01:58:20;;;;;;;28.55;17.00;;;256.50;2252.80;;;;;;5066376;28;20028;-80
2021/12/26 02:01:04;;;;;;;31.02;16.75;;;256.50;2252.80;;;;;;5086028;28;20020;-75
2021/12/26 02:03:30;;;;;;;25.85;15.60;;;256.50;2252.80;;;;;;5083636;28;20096;-79
2021/12/26 02:05:56;;;;;;;30.83;15.32;;;256.50;2252.80;;;;;;5084678;28;20095;-80
2021/12/26 02:08:22;;;;;;;;;;;256.70;2252.80;;;;;;5084573;28;20028;-81
2021/12/26 02:10:48;;;;;;;25.47;12.73;;;256.80;2252.80;;;;;;5086265;28;19918;-80
2021/12/26 02:13:14;;;;;;;26.92;13.25;;;256.80;2252.80;;;;;;5084352;28;20036;-75
2021/12/26 02:15:40;;;;;;;22.92;12.02;;;256.90;2252.80;;;;;;5084141;28;20069;-76
2021/12/26 02:18:07;;;;;;;21.55;12.77;;;256.70;2252.80;;;;;;5085744;28;20020;-80
2021/12/26 02:20:51;;;;;;;21.50;12.55;;;256.50;2252.80;;;;;;5083881;28;20020;-75
2021/12/26 02:23:25;;;;;;;18.45;11.48;;;256.60;2252.80;;;;;;5083030;28;20122;-80
2021/12/26 02:28:25;;;;;;;21.13;11.30;;;256.90;2252.80;;;;;;5094426;28;20059;-75
2021/12/26 02:30:54;;;;;;;20.60;14.68;;;281.70;2278.40;;;;;;5094975;28;20027;-75
2021/12/26 02:33:24;;;;;;;20.02;12.10;;;281.60;2278.40;;;;;;5094483;28;20012;-75
2021/12/26 02:35:51;;;;;;;19.00;11.52;;;281.70;2278.40;;;;;;5094589;28;20030;-75
2021/12/26 02:38:18;;;;;;;21.17;11.77;;;281.90;2278.40;;;;;;5094867;28;20559;-75
2021/12/26 02:40:50;;;;;;;23.10;13.52;;;282.00;2278.40;;;;;;5094435;28;20031;-74
2021/12/26 02:43:18;;;;;;;21.88;12.38;;;282.10;2278.40;;;;;;5094516;28;20035;-75
2021/12/26 02:45:44;;;;;;;18.83;11.45;;;282.00;2278.40;;;;;;5094371;28;20024;-75
2021/12/26 02:48:11;;;;;;;18.10;10.88;;;282.00;2278.40;;;;;;5094124;28;20032;-75
2021/12/26 02:50:40;;;;;;;20.38;10.02;;;282.00;2278.40;;;;;;5076065;28;20028;-76
2021/12/26 02:53:09;;;;;;;22.83;11.95;;;282.00;2278.40;;;;;;5094566;28;20088;-79
2021/12/26 02:55:35;;;;;;;18.33;11.20;;;282.00;2278.40;;;;;;5077502;28;20021;-80
2021/12/26 02:58:05;;;;;;;17.85;12.57;;;281.80;2278.40;;;;;;5073899;28;20379;-77
2021/12/26 03:00:35;;;;;;;18.55;11.40;;;281.70;2278.40;;;;;;5073917;28;20024;-75
2021/12/26 03:03:03;;;;;;;20.15;11.55;;;281.80;2278.40;;;;;;5073703;28;20028;-75
2021/12/26 03:05:32;;;;;;;20.20;12.13;;;281.90;2278.40;;;;;;5055965;28;20067;-75
2021/12/26 03:07:58;;;;;;;21.95;13.05;;;281.90;2278.40;;;;;;5073472;28;20028;-75
2021/12/26 03:10:26;;;;;;;19.45;11.55;;;281.90;2278.40;;;;;;5073726;28;20051;-74
2021/12/26 03:12:55;;;;;;;18.83;12.48;;;282.10;2278.40;;;;;;5055715;28;20426;-75
2021/12/26 03:15:22;;;;;;;27.85;13.38;;;282.10;2278.40;;;;;;5073715;28;20103;-75
2021/12/26 03:17:47;;;;;;;17.15;11.63;;;282.10;2278.40;;;;;;5073315;28;20070;-75
2021/12/26 03:20:16;;;;;;;19.48;13.50;;;282.20;2278.40;;;;;;5054814;28;20032;-74
2021/12/26 03:22:44;;;;;;;22.17;14.43;;;282.30;2278.40;;;;;;5073484;28;20028;-75
2021/12/26 03:25:12;;;;;;;23.90;11.82;;;282.40;2278.40;;;;;;5073340;28;20044;-75
2021/12/26 03:27:38;;;;;;;21.00;11.65;;;282.40;2278.40;;;;;;5073216;28;20102;-75
2021/12/26 03:30:08;;;;;;;19.45;12.15;;;282.40;2278.40;;;;;;5073026;28;20040;-74
2021/12/26 03:32:34;;;;;;;19.25;12.10;;;282.40;2278.40;;;;;;5073210;28;20020;-75
2021/12/26 03:35:01;;;;;;;17.90;12.07;;;282.50;2278.40;;;;;;5073039;28;20028;-79
2021/12/26 03:37:28;;;;;;;21.77;13.23;;;282.30;2278.40;;;;;;5073106;28;20044;-75
2021/12/26 03:39:55;;;;;;;21.33;12.18;;;282.40;2278.40;;;;;;5072895;28;20020;-75
2021/12/26 03:42:21;;;;;;;23.83;13.27;;;282.40;2278.40;;;;;;5072929;28;20464;-75
2021/12/26 03:44:48;;;;;;;19.60;12.25;;;282.20;2278.40;;;;;;5054817;28;20093;-75
2021/12/26 03:47:15;;;;;;;19.92;12.40;;;282.20;2278.40;;;;;;5072848;28;20028;-75
2021/12/26 03:49:40;;;;;;;18.58;12.13;;;282.40;2278.40;;;;;;5072810;28;20024;-79
2021/12/26 03:52:06;;;;;;;16.27;10.40;;;282.40;2278.40;;;;;;5072454;28;20025;-77
2021/12/26 03:54:32;;;;;;;;;;;282.30;2278.40;;;;;;5073260;28;20020;-74
2021/12/26 03:56:58;;;;;;;15.68;10.40;;;282.20;2278.40;;;;;;5072545;28;19912;-75
2021/12/26 03:59:24;;;;;;;17.30;9.32;;;282.10;2278.40;;;;;;5072805;28;20024;-75
2021/12/26 04:01:49;;;;;;;;;;;281.90;2278.40;;;;;;5072884;28;20046;-75
2021/12/26 04:04:15;;;;;;;8.68;6.03;;;281.60;2278.40;;;;;;5072672;28;19904;-74
2021/12/26 04:06:41;;;;;;;7.70;5.38;;;256.50;2252.80;;;;;;5072543;28;20024;-75
2021/12/26 04:09:08;;;;;;;9.05;5.53;;;256.10;2252.80;;;;;;5047797;28;20059;-79
2021/12/26 04:11:36;;;;;;;6.40;4.47;;;231.30;2252.80;;;;;;5043405;28;20059;-75
2021/12/26 04:14:02;;;;;;;7.82;5.57;;;231.10;2252.80;;;;;;5043590;28;20020;-80
2021/12/26 04:16:28;;;;;;;9.18;5.65;;;230.80;2252.80;;;;;;5066381;28;20028;-79
2021/12/26 04:18:54;;;;;;;10.93;6.53;;;230.70;2252.80;;;;;;5034576;28;20391;-75
2021/12/26 04:21:19;;;;;;;;;;;230.70;2252.80;;;;;;5053054;28;20055;-75
2021/12/26 04:23:45;;;;;;;6.68;4.43;;;230.60;2252.80;;;;;;5052503;28;19909;-80
2021/12/26 04:26:11;;;;;;;;;;;230.50;2252.80;;;;;;5053702;28;20052;-75
2021/12/26 04:28:36;;;;;;;7.13;4.90;;;230.50;2252.80;;;;;;5072262;28;19920;-80
2021/12/26 04:31:02;;;;;;;;;;;230.50;2252.80;;;;;;5072405;28;20033;-76
2021/12/26 04:33:28;;;;;;;7.25;4.45;;;205.70;2252.80;;;;;;5072284;28;19912;-81
2021/12/26 04:35:53;;;;;;;;;;;205.50;2252.80;;;;;;5072854;28;20095;-75
2021/12/26 04:38:19;;;;;;;13.45;5.05;;;205.50;2252.80;;;;;;5072500;28;20359;-76
2021/12/26 04:40:45;;;;;;;;;;;205.50;2252.80;;;;;;5072782;28;20040;-75
2021/12/26 04:43:11;;;;;;;7.95;4.63;;;205.60;2252.80;;;;;;5072583;28;19904;-77
2021/12/26 04:45:37;;;;;;;9.07;4.65;;;205.40;2252.80;;;;;;5072142;28;20027;-75
2021/12/26 04:48:03;;;;;;;;;;;205.40;2252.80;;;;;;5072736;28;20443;-75
2021/12/26 04:50:29;;;;;;;9.50;4.85;;;205.40;2252.80;;;;;;5072048;28;20394;-75
2021/12/26 04:52:56;;;;;;;8.35;4.07;;;205.40;2252.80;;;;;;5072254;28;20464;-75
2021/12/26 04:55:25;;;;;;;7.30;4.80;;;205.50;2252.80;;;;;;5071864;28;20027;-80
2021/12/26 04:57:51;;;;;;;9.38;5.72;;;205.40;2252.80;;;;;;5071982;28;20115;-75
2021/12/26 05:00:19;;;;;;;;;;;205.20;2252.80;;;;;;5072818;28;20024;-75
2021/12/26 05:02:47;;;;;;;7.88;4.60;;;205.50;2252.80;;;;;;5072084;28;20370;-75
2021/12/26 05:05:13;;;;;;;6.78;4.63;;;205.20;2252.80;;;;;;5072105;28;20023;-76
2021/12/26 05:07:39;;;;;;;8.68;4.72;;;205.40;2252.80;;;;;;5071905;28;20016;-77
2021/12/26 05:10:07;;;;;;;8.90;5.13;;;205.10;2252.80;;;;;;5071936;28;20089;-79
2021/12/26 05:12:33;;;;;;;8.70;4.20;;;204.90;2252.80;;;;;;5071755;28;20017;-76
2021/12/26 05:15:01;;;;;;;8.35;4.78;;;204.90;2252.80;;;;;;5072221;28;20506;-75
2021/12/26 05:17:27;;;;;;;7.63;4.75;;;204.90;2252.80;;;;;;5071685;28;20027;-75
2021/12/26 05:19:52;;;;;;;;;;;204.90;2252.80;;;;;;5072365;28;20033;-76
2021/12/26 05:22:20;;;;;;;9.55;4.60;;;205.00;2252.80;;;;;;5072392;28;19916;-75
2021/12/26 05:24:46;;;;;;;10.30;5.53;;;180.10;2252.80;;;;;;5072048;28;20466;-80
2021/12/26 05:27:12;;;;;;;;;;;180.00;2252.80;;;;;;5072474;28;20036;-75
2021/12/26 05:29:37;;;;;;;11.57;4.53;;;180.00;2252.80;;;;;;5071963;28;19923;-81
2021/12/26 05:32:03;;;;;;;;;;;180.00;2252.80;;;;;;5072791;28;20422;-81
2021/12/26 05:34:29;;;;;;;7.55;4.60;;;179.90;2252.80;;;;;;5072385;28;19935;-79
2021/12/26 05:36:54;;;;;;;;;;;179.80;2252.80;;;;;;5092655;28;20020;-75
2021/12/26 05:39:20;;;;;;;11.15;4.93;;;179.80;2252.80;;;;;;5092151;28;20405;-75
2021/12/26 05:41:46;;;;;;;;;;;179.80;2252.80;;;;;;5074258;28;20024;-76
2021/12/26 05:44:12;;;;;;;10.88;4.93;;;179.60;2252.80;;;;;;5095507;28;20305;-75
2021/12/26 05:46:37;;;;;;;;;;;179.60;2252.80;;;;;;5096490;28;20434;-75
2021/12/26 05:49:04;;;;;;;9.93;5.80;;;179.50;2252.80;;;;;;5095426;28;19912;-79
2021/12/26 05:51:30;;;;;;;8.27;5.15;;;179.70;2252.80;;;;;;5095425;28;20012;-75
2021/12/26 05:53:55;;;;;;;;;;;179.70;2252.80;;;;;;5096266;28;20024;-79
2021/12/26 05:56:21;;;;;;;9.02;5.63;;;179.70;2252.80;;;;;;5095422;28;19908;-76
2021/12/26 05:58:47;;;;;;;;;;;179.70;2252.80;;;;;;5096208;28;20129;-74
2021/12/26 06:01:13;;;;;;;8.40;4.55;;;179.70;2252.80;;;;;;5095334;28;19915;-76
2021/12/26 06:03:39;;;;;;;;;;;179.70;2252.80;;;;;;5095852;28;20059;-75
2021/12/26 06:06:05;;;;;;;10.52;4.85;;;179.50;2252.80;;;;;;5095375;28;19911;-76
2021/12/26 06:08:31;;;;;;;;;;;179.30;2252.80;;;;;;5077815;28;20036;-76
2021/12/26 06:10:57;;;;;;;10.10;4.75;;;179.30;2252.80;;;;;;5095041;28;19904;-81
2021/12/26 06:13:22;;;;;;;;;;;179.20;2252.80;;;;;;5095709;28;20045;-76
2021/12/26 06:15:48;;;;;;;7.38;4.60;;;154.40;2252.80;;;;;;5095264;28;19908;-80
2021/12/26 06:18:14;;;;;;;;;;;154.10;2252.80;;;;;;5095528;28;20026;-78
2021/12/26 06:20:39;;;;;;;8.45;3.85;;;154.10;2252.80;;;;;;5095273;28;19911;-75
2021/12/26 06:23:05;;;;;;;;;;;154.10;2252.80;;;;;;5095451;28;20021;-76
2021/12/26 06:25:31;;;;;;;5.72;3.90;;;154.00;2252.80;;;;;;5094980;28;19911;-75
2021/12/26 06:27:56;;;;;;;;;;;153.90;2252.80;;;;;;5094699;28;20395;-79
2021/12/26 06:30:23;;;;;;;7.45;4.13;;;154.00;2252.80;;;;;;5087864;28;19920;-77
2021/12/26 06:32:48;;;;;;;7.05;4.13;;;154.00;2252.80;;;;;;5083282;28;20073;-76
2021/12/26 06:35:14;;;;;;;;;;;153.90;2252.80;;;;;;5083542;28;20402;-79
2021/12/26 06:37:40;;;;;;;10.32;4.05;;;153.90;2252.80;;;;;;5066571;28;19912;-79
2021/12/26 06:40:09;;;;;;;9.60;4.82;;;153.90;2252.80;;;;;;5083061;28;20016;-78
2021/12/26 06:42:41;;;;;;;9.35;5.05;;;153.80;2252.80;;;;;;5082426;28;20017;-78
2021/12/26 06:45:14;;;;;;;11.38;5.57;;;153.70;2252.80;;;;;;5074249;28;20048;-75
2021/12/26 06:47:42;;;;;;;14.68;10.20;;;153.60;2252.80;;;;;;5074486;28;20079;-75
2021/12/26 06:50:08;;;;;;;10.00;6.18;;;153.60;2252.80;;;;;;5073970;28;20029;-75
2021/12/26 06:52:34;;;;;;;12.32;6.57;;;153.70;2252.80;;;;;;5074461;28;20028;-75
2021/12/26 06:55:00;;;;;;;;;;;153.70;2252.80;;;;;;5073923;28;20029;-75
2021/12/26 06:57:27;;;;;;;8.05;4.38;;;128.90;2252.80;;;;;;5074388;28;19908;-75
2021/12/26 06:59:52;;;;;;;8.88;4.78;;;128.90;2252.80;;;;;;5074027;28;20093;-75
2021/12/26 07:02:18;;;;;;;;;;;128.90;2252.80;;;;;;5074375;28;20028;-79
2021/12/26 07:04:44;;;;;;;7.60;4.68;;;153.60;2252.80;;;;;;5056021;28;19958;-76
2021/12/26 07:07:09;;;;;;;;;;;153.60;2252.80;;;;;;5056269;28;20476;-74
2021/12/26 07:09:35;;;;;;;7.88;4.95;;;128.90;2252.80;;;;;;5075998;28;19962;-78
2021/12/26 07:12:01;;;;;;;;;;;153.60;2252.80;;;;;;5093899;28;20039;-76
2021/12/26 07:14:27;;;;;;;11.00;5.75;;;153.60;2252.80;;;;;;5093633;28;20335;-77
2021/12/26 07:16:52;;;;;;;;;;;128.90;2252.80;;;;;;5094344;28;20062;-80
2021/12/26 07:19:18;;;;;;;12.65;7.15;;;128.80;2252.80;;;;;;5094077;28;19958;-76
2021/12/26 07:21:43;;;;;;;;;;;128.80;2252.80;;;;;;5094054;28;20107;-77
2021/12/26 07:24:09;;;;;;;12.23;6.78;;;128.90;2252.80;;;;;;5093978;28;19939;-75
2021/12/26 07:26:35;;;;;;;;;;;128.90;2252.80;;;;;;5094057;28;20032;-76
2021/12/26 07:29:00;;;;;;;13.20;7.80;;;128.90;2252.80;;;;;;5092990;28;19916;-76
2021/12/26 07:31:27;;;;;;;;;;;128.90;2252.80;;;;;;5094203;28;20502;-75
2021/12/26 07:33:53;;;;;;;10.10;5.07;;;128.90;2252.80;;;;;;5075274;28;20356;-79
2021/12/26 07:36:19;;;;;;;;;;;128.70;2252.80;;;;;;5093705;28;20039;-75
2021/12/26 07:38:44;;;;;;;10.88;6.95;;;128.80;2252.80;;;;;;5087636;28;20329;-78
2021/12/26 07:41:10;;;;;;;;;;;128.80;2252.80;;;;;;5075359;28;20446;-75
2021/12/26 07:43:36;;;;;;;16.40;9.45;;;128.70;2252.80;;;;;;5090391;28;19904;-75
2021/12/26 07:46:02;;;;;;;;;;;128.80;2252.80;;;;;;5075156;28;20107;-75
2021/12/26 07:48:27;;;;;;;22.10;12.23;;;128.70;2252.80;;;;;;5093107;28;19999;-87
2021/12/26 07:50:53;;;;;;;;;;;128.70;2252.80;;;;;;5093670;28;20032;-78
2021/12/26 07:53:19;;;;;;;32.35;15.25;;;128.80;2252.80;;;;;;5092964;28;20317;-81
2021/12/26 07:55:44;;;;;;;;;;;128.90;2252.80;;;;;;5075365;28;20063;-84
2021/12/26 07:58:10;;;;;;;21.23;11.95;;;153.60;2252.80;;;;;;5092661;28;19912;-76
2021/12/26 08:00:36;;;;;;;;;;;128.90;2252.80;;;;;;5075344;28;20074;-76
2021/12/26 08:03:02;;;;;;;35.95;15.88;;;153.60;2252.80;;;;;;5093058;28;19903;-78
2021/12/26 08:05:28;;;;;;;;;;;153.60;2252.80;;;;;;5092590;28;20024;-81
2021/12/26 08:07:54;;;;;;;12.35;8.02;;;153.70;2252.80;;;;;;5092696;28;19904;-79
2021/12/26 08:10:20;;;;;;;;;;;153.70;2252.80;;;;;;5074301;28;20040;-76
2021/12/26 08:12:45;;;;;;;12.65;7.80;;;153.70;2252.80;;;;;;5092844;28;19908;-81
2021/12/26 08:15:12;;;;;;;;;;;153.80;2252.80;;;;;;5093157;28;20387;-75
2021/12/26 08:17:40;;;;;;;20.75;9.60;;;153.70;2252.80;;;;;;5090086;28;19904;-79
2021/12/26 08:20:07;;;;;;;26.15;14.00;;;153.60;2252.80;;;;;;5092480;28;20043;-79
2021/12/26 08:22:32;;;;;;;18.83;10.50;;;153.80;2252.80;;;;;;5074546;28;20036;-80
2021/12/26 08:24:58;;;;;;;;;;;153.70;2252.80;;;;;;5072295;28;20030;-81
2021/12/26 08:27:24;;;;;;;15.13;8.32;;;153.60;2252.80;;;;;;5074267;28;19923;-76
2021/12/26 08:29:49;;;;;;;;;;;153.80;2252.80;;;;;;5092629;28;20356;-78
2021/12/26 08:32:17;;;;;;;16.48;7.70;;;153.90;2252.80;;;;;;5092417;28;19904;-79
2021/12/26 08:34:44;;;;;;;15.45;8.77;;;153.80;2252.80;;;;;;5092365;28;20023;-77
2021/12/26 08:37:11;;;;;;;15.32;8.45;;;154.00;2252.80;;;;;;5073882;28;20024;-79
2021/12/26 08:39:41;;;;;;;14.57;9.20;;;153.90;2252.80;;;;;;5092159;28;20013;-78
2021/12/26 08:42:08;;;;;;;16.92;10.05;;;154.00;2252.80;;;;;;5092074;28;20024;-75
2021/12/26 08:44:35;;;;;;;18.90;12.48;;;154.00;2252.80;;;;;;5092363;28;20052;-80
2021/12/26 08:47:03;;;;;;;20.45;11.40;;;153.60;2252.80;;;;;;5092346;28;20111;-75
2021/12/26 08:49:29;;;;;;;19.08;10.45;;;128.90;2252.80;;;;;;5091822;28;20064;-75
2021/12/26 08:51:54;;;;;;;;;;;128.70;2252.80;;;;;;5092599;28;20055;-75
2021/12/26 08:54:22;;;;;;;14.77;8.68;;;128.90;2252.80;;;;;;5091950;28;19904;-81
2021/12/26 08:56:48;;;;;;;18.65;10.70;;;128.60;2252.80;;;;;;5084542;28;20031;-82
2021/12/26 08:59:14;;;;;;;;;;;128.60;2252.80;;;;;;5072218;28;20028;-80
2021/12/26 09:01:40;;;;;;;14.73;8.40;;;128.50;2252.80;;;;;;5071952;28;20378;-75
2021/12/26 09:04:07;;;;;;;16.48;9.25;;;128.60;2252.80;;;;;;5071524;28;20017;-79
2021/12/26 09:06:32;;;;;;;;;;;128.70;2252.80;;;;;;5072080;28;20499;-76
2021/12/26 09:08:58;;;;;;;15.20;8.57;;;128.60;2252.80;;;;;;5071461;28;19916;-80
2021/12/26 09:11:24;;;;;;;;;;;128.50;2252.80;;;;;;5072353;28;20091;-79
2021/12/26 09:13:50;;;;;;;13.63;8.15;;;128.40;2252.80;;;;;;5071469;28;19905;-78
2021/12/26 09:16:15;;;;;;;;;;;128.40;2252.80;;;;;;5072158;28;20108;-79
2021/12/26 09:18:41;;;;;;;17.02;8.35;;;128.60;2252.80;;;;;;5074879;28;20348;-78
2021/12/26 09:21:07;;;;;;;;;;;128.40;2252.80;;;;;;5074621;28;20472;-78
2021/12/26 09:23:33;;;;;;;27.27;11.85;;;128.40;2252.80;;;;;;5075582;28;19911;-78
2021/12/26 09:25:58;;;;;;;;;;;128.50;2252.80;;;;;;5076348;28;20021;-75
2021/12/26 09:28:25;;;;;;;37.55;17.25;;;128.50;2252.80;;;;;;5096292;28;19920;-76
2021/12/26 09:30:51;;;;;;;26.42;13.75;;;128.30;2252.80;;;;;;5095522;28;20085;-79
2021/12/26 09:33:19;;;;;;;25.25;13.35;;;128.20;2252.80;;;;;;5095738;28;20023;-82
2021/12/26 09:35:50;;;;;;;27.08;13.93;;;128.40;2252.80;;;;;;5095383;28;20020;-75
2021/12/26 09:38:16;;;;;;;21.17;11.45;;;128.70;2252.80;;;;;;5095463;28;20464;-75
2021/12/26 09:40:42;;;;;;;23.45;12.45;;;128.90;2252.80;;;;;;5092756;28;20044;-76
2021/12/26 09:43:08;;;;;;;17.42;10.93;;;128.80;2252.80;;;;;;5095147;28;20020;-80
2021/12/26 09:45:34;;;;;;;;;;;128.50;2252.80;;;;;;5096234;28;20348;-75
2021/12/26 09:48:00;;;;;;;17.10;9.10;;;128.70;2252.80;;;;;;5095365;28;19904;-82
2021/12/26 09:50:26;;;;;;;;;;;128.80;2252.80;;;;;;5095816;28;20031;-75
2021/12/26 09:52:55;;;;;;;30.20;13.77;;;128.70;2252.80;;;;;;5077135;28;19911;-74
2021/12/26 09:55:22;;;;;;;35.70;15.85;;;128.40;2252.80;;;;;;5095248;28;20017;-76
2021/12/26 09:57:47;;;;;;;36.03;16.63;;;128.40;2252.80;;;;;;5094719;28;20034;-75
2021/12/26 10:00:19;;;;;;;;;;;128.30;2252.80;;;;;;5095513;28;20103;-82
2021/12/26 10:02:45;;;;;;;31.48;13.77;;;128.40;2252.80;;;;;;5090160;28;19904;-80
2021/12/26 10:05:11;;;;;;;;;;;128.50;2252.80;;;;;;5072767;28;20028;-76
2021/12/26 10:07:36;;;;;;;29.60;14.25;;;128.40;2252.80;;;;;;5085186;28;19931;-85
2021/12/26 10:10:05;;;;;;;;;;;128.40;2252.80;;;;;;5084315;28;20035;-83
2021/12/26 10:12:39;;;;;;;22.02;11.75;;;128.40;2252.80;;;;;;5084371;28;19905;-83
2021/12/26 10:15:05;;;;;;;20.90;11.70;;;128.50;2252.80;;;;;;5086458;28;20016;-76
2021/12/26 10:17:31;;;;;;;;;;;128.60;2252.80;;;;;;5084587;28;20045;-76
2021/12/26 10:20:09;;;;;;;22.73;10.85;;;128.70;2252.80;;;;;;5066299;28;19912;-88
2021/12/26 10:22:36;;;;;;;18.38;9.57;;;128.90;2252.80;;;;;;5084373;28;20101;-85
2021/12/26 10:25:12;;;;;;;24.30;13.68;;;128.80;2252.80;;;;;;5087083;28;20066;-80
2021/12/26 10:27:40;;;;;;;21.08;11.32;;;128.60;2252.80;;;;;;5084423;28;20044;-81
2021/12/26 10:30:06;;;;;;;24.70;11.73;;;128.40;2252.80;;;;;;5067215;28;20043;-75
2021/12/26 10:32:37;;;;;;;19.35;11.77;;;128.20;2252.80;;;;;;5082914;28;20020;-75
2021/12/26 10:35:08;;;;;;;27.30;14.30;;;128.30;2252.80;;;;;;5085420;28;20042;-75
2021/12/26 10:37:35;;;;;;;21.58;10.43;;;128.10;2252.80;;;;;;5083980;28;20500;-81
2021/12/26 10:40:06;;;;;;;19.98;9.35;;;128.20;2252.80;;;;;;5083570;28;20511;-77
2021/12/26 10:42:36;;;;;;;19.75;9.40;;;128.30;2252.80;;;;;;5067130;28;20455;-75
2021/12/26 10:45:11;;;;;;;17.77;9.65;;;128.30;2252.80;;;;;;5084945;28;20016;-81
2021/12/26 10:47:40;;;;;;;19.92;10.82;;;128.40;2252.80;;;;;;5084131;28;20044;-79
2021/12/26 10:50:11;;;;;;;25.15;11.13;;;128.00;2252.80;;;;;;5083057;28;20110;-77
2021/12/26 10:52:42;;;;;;;18.67;11.85;;;128.00;2252.80;;;;;;5067390;28;20028;-80
2021/12/26 10:55:14;;;;;;;23.38;13.73;;;128.20;2252.80;;;;;;5085553;28;20482;-82
2021/12/26 10:57:45;;;;;;;23.55;11.80;;;128.30;2252.80;;;;;;5084605;28;20448;-82
2021/12/26 11:00:24;;;;;;;21.45;11.43;;;128.40;2252.80;;;;;;5064910;28;20024;-80
2021/12/26 11:02:54;;;;;;;29.80;14.95;;;128.00;2252.80;;;;;;5082775;28;20020;-80
2021/12/26 11:05:23;;;;;;;29.60;12.82;;;103.30;2227.20;;;;;;5067503;28;20035;-76
2021/12/26 11:07:51;;;;;;;23.48;11.60;;;103.20;2227.20;;;;;;5082788;28;20017;-76
2021/12/26 11:10:23;;;;;;;20.50;11.82;;;103.20;2227.20;;;;;;5063249;28;20036;-78
2021/12/26 11:12:52;;;;;;;26.15;14.32;;;128.00;2252.80;;;;;;5084626;28;20027;-81
2021/12/26 11:15:20;;;;;;;20.25;11.38;;;128.00;2252.80;;;;;;5084866;28;20055;-84
2021/12/26 11:17:58;;;;;;;18.42;10.43;;;103.10;2227.20;;;;;;5081893;28;20155;-84
2021/12/26 11:20:44;;;;;;;26.25;11.85;;;103.30;2227.20;;;;;;5082106;28;20090;-75
2021/12/26 11:23:15;;;;;;;24.35;12.70;;;128.10;2252.80;;;;;;5066609;28;20494;-75
2021/12/26 11:25:52;;;;;;;24.13;14.18;;;128.20;2252.80;;;;;;5081731;28;20023;-75
2021/12/26 11:28:26;;;;;;;19.58;10.20;;;128.30;2252.80;;;;;;5083016;28;20044;-74
2021/12/26 11:30:54;;;;;;;18.80;10.95;;;103.30;2227.20;;;;;;5065577;28;20044;-82
2021/12/26 11:33:21;;;;;;;21.98;11.30;;;128.00;2252.80;;;;;;5083074;28;20032;-81
2021/12/26 11:35:48;;;;;;;29.75;13.32;;;103.30;2227.20;;;;;;5082611;28;20020;-75
2021/12/26 11:38:18;;;;;;;25.60;13.60;;;128.10;2252.80;;;;;;5081669;28;20024;-80
2021/12/26 11:40:47;;;;;;;30.13;16.15;;;128.10;2252.80;;;;;;5081305;28;20017;-76
2021/12/26 11:43:54;;;;;;;35.17;16.42;;;128.00;2252.80;;;;;;5073286;28;20032;-83
2021/12/26 11:46:28;;;;;;;22.45;11.00;;;128.30;2252.80;;;;;;4972803;28;20123;-75
2021/12/26 11:49:14;;;;;;;23.55;12.18;;;128.20;2252.80;;;;;;4972518;28;20058;-86
2021/12/26 11:51:58;;;;;;;26.50;13.68;;;128.40;2252.80;;;;;;4956380;28;20038;-74
2021/12/26 11:54:38;;;;;;;21.10;10.90;;;128.40;2252.80;;;;;;4956112;28;20031;-76
2021/12/26 11:57:24;;;;;;;31.65;16.60;;;103.30;2227.20;;;;;;4955922;28;20094;-75
2021/12/26 12:00:12;;;;;;;21.73;10.95;;;128.10;2252.80;;;;;;4972209;28;20613;-78
2021/12/26 12:02:44;;;;;;;27.95;14.00;;;128.00;2252.80;;;;;;4956227;28;20022;-75
2021/12/26 12:05:33;;;;;;;31.48;13.60;;;128.00;2252.80;;;;;;4973623;28;20078;-80
2021/12/26 12:08:04;;;;;;;23.33;12.73;;;128.00;2252.80;;;;;;4980548;28;20070;-78
2021/12/26 12:10:48;;;;;;;26.70;13.30;;;103.30;2227.20;;;;;;4981370;28;20524;-75
2021/12/26 12:13:43;;;;;;;20.25;10.07;;;128.20;2252.80;;;;;;4989775;28;20030;-77
2021/12/26 12:16:13;;;;;;;20.25;10.70;;;128.10;2252.80;;;;;;4902071;29;20039;-79
2021/12/26 12:18:45;;;;;;;22.27;10.63;;;128.30;2252.80;;;;;;4905689;29;20055;-77
2021/12/26 12:21:19;;;;;;;18.08;10.68;;;128.20;2252.80;;;;;;4908926;29;20040;-81
2021/12/26 12:24:13;;;;;;;24.27;12.73;;;128.40;2252.80;;;;;;4950266;28;20046;-78
2021/12/26 12:26:54;;;;;;;30.27;15.95;;;128.40;2252.80;;;;;;4954542;28;20050;-77
2021/12/26 12:29:29;;;;;;;27.20;14.70;;;128.60;2252.80;;;;;;4970868;28;20542;-81